KLHQ

Fairfield County Airport

Lancaster, Ohio, USA
METAR KLHQ 172153Z AUTO 23008KT 10SM FEW021 FEW120 26/23 A2995 RMK AO2 RAE01 TSB2055E10 SLP136 P0000 T02560228
Observed Flight Rules
Aug-17 @ 21:53 UTC (44 minutes ago) Visual Flight Rules
Wind Visibility Clouds
230° at 8 knots 10 miles
  • Few at 2,100' AGL
  • Few at 12,000' AGL
Temperatures Readings Precipitation
Current 26°C / 79°F
Dewpoint 23°C / 73°F
Humidity 84%
Altimeter 29.95" Hg
Pressure 1013.6 hPa
Elevation 260
Current Rain 0.005
METAR KLHQ 172153Z AUTO 23008KT 10SM FEW021 FEW120 26/23 A2995 RMK AO2 RAE01 TSB2055E10 SLP136 P0000 T02560228
Observed Flight Rules
Aug-17 @ 21:53 UTC
(44 minutes ago)
VFR
Wind Visibility
230° at 8 knots 10 miles
Clouds
  • Few at 2,100' AGL
  • Few at 12,000' AGL
Temperature Dewpoint
26°C / 79°F 23°C / 73°F
Humidity Altimeter Pressure
84% 29.95" Hg 1013.6 hPa
Current Rain
0.005